Time;durP1;ratioP1;P1;durP2;ratioP2;P2;SDS_P1;SDS_P2;PMS_P1;PMS_P2;Temp;Humidity;BMP_temperature;BMP_pressure;BME280_temperature;BME280_humidity;BME280_pressure;Samples;Min_cycle;Max_cycle;Signal;HPM_P1;HPM_P2
2021/01/02 00:00:10;;;;;;;19.27;14.50;;;0.40;99.90;;;1.36;93.26;97379.50;5205330;28;20220;-76
2021/01/02 00:03:13;;;;;;;34.27;16.10;;;0.40;99.90;;;1.32;92.34;97378.38;5195643;28;20240;-76
2021/01/02 00:05:58;;;;;;;26.90;15.03;;;0.40;99.90;;;1.35;92.63;97378.63;5205211;28;20187;-75
2021/01/02 00:08:32;;;;;;;25.43;14.80;;;0.30;99.90;;;1.38;92.09;97382.16;5199111;28;20202;-76
2021/01/02 00:11:23;;;;;;;15.53;13.97;;;0.30;99.90;;;1.40;92.47;97381.50;5184187;28;20229;-75
2021/01/02 00:14:14;;;;;;;19.63;15.40;;;0.30;99.90;;;1.49;91.30;97376.41;5190967;28;20235;-76
2021/01/02 00:17:15;;;;;;;16.20;14.57;;;0.30;99.90;;;1.29;92.13;97383.16;5202796;28;20300;-75
2021/01/02 00:20:06;;;;;;;19.37;14.23;;;0.30;99.90;;;1.25;92.46;97383.63;5202011;28;20672;-75
2021/01/02 00:22:47;;;;;;;27.17;18.37;;;0.30;99.90;;;1.18;92.95;97378.84;5203522;28;20214;-76
2021/01/02 00:25:22;;;;;;;21.03;15.77;;;0.20;99.90;;;1.32;92.19;97383.41;5204804;28;20291;-75
2021/01/02 00:28:16;;;;;;;22.17;14.50;;;0.20;99.90;;;1.29;91.62;97378.13;5203486;28;20214;-76
2021/01/02 00:31:38;;;;;;;23.63;16.67;;;0.20;99.90;;;1.19;91.82;97380.59;5202681;28;20197;-77
2021/01/02 00:34:34;;;;;;;35.17;16.53;;;0.30;99.90;;;1.19;90.98;97378.06;5203697;28;20224;-76
2021/01/02 00:37:19;;;;;;;21.23;15.27;;;0.20;99.90;;;1.09;91.13;97373.03;5203795;28;20212;-79
2021/01/02 00:40:05;;;;;;;28.70;15.97;;;0.10;99.90;;;1.09;91.98;97368.00;5204021;28;20295;-76
2021/01/02 00:42:39;;;;;;;37.53;16.57;;;0.10;99.90;;;0.93;92.29;97369.97;5202561;28;20223;-76
2021/01/02 00:45:17;;;;;;;17.50;15.13;;;0.10;99.90;;;0.87;92.63;97370.31;5202532;28;20694;-76
2021/01/02 00:47:50;;;;;;;25.47;17.50;;;0.10;99.90;;;0.93;92.88;97369.97;5191328;28;20198;-75
2021/01/02 00:50:24;;;;;;;39.67;17.53;;;0.00;99.90;;;0.93;92.63;97369.97;5189418;28;20200;-75
2021/01/02 00:53:14;;;;;;;18.10;14.87;;;0.00;99.90;;;0.95;92.59;97373.50;5203934;28;20227;-76
2021/01/02 00:56:27;;;;;;;22.77;17.13;;;0.00;99.90;;;1.02;92.15;97375.75;5199853;28;20220;-76
2021/01/02 00:59:48;;;;;;;20.87;17.03;;;0.00;99.90;;;1.01;92.50;97379.03;5186004;28;20203;-76
2021/01/02 01:02:56;;;;;;;21.10;17.50;;;0.10;99.90;;;0.98;93.18;97378.78;5193343;28;20214;-75
2021/01/02 01:05:35;;;;;;;22.00;17.40;;;0.10;99.90;;;1.00;93.12;97379.78;5189791;28;20209;-76
2021/01/02 01:08:07;;;;;;;20.27;17.30;;;0.10;99.90;;;0.93;93.39;97390.09;5182146;28;20209;-76
2021/01/02 01:10:40;;;;;;;24.07;17.37;;;0.10;99.90;;;1.01;93.14;97389.09;5183657;28;20199;-75
2021/01/02 01:13:19;;;;;;;21.13;17.23;;;0.20;99.90;;;0.99;93.67;97396.50;5196138;28;20201;-76
2021/01/02 01:15:52;;;;;;;20.47;17.03;;;0.20;99.90;;;1.06;93.59;97400.41;5182957;28;20339;-76
2021/01/02 01:18:43;;;;;;;38.07;27.53;;;0.20;99.90;;;1.06;93.67;97397.91;5192299;28;20196;-76
2021/01/02 01:21:16;;;;;;;30.93;22.47;;;0.20;99.90;;;1.11;93.38;97396.69;5194416;28;20216;-76
2021/01/02 01:24:09;;;;;;;24.17;18.23;;;0.30;99.90;;;1.20;93.01;97397.44;5200456;28;20655;-75
2021/01/02 01:27:03;;;;;;;35.17;27.10;;;0.30;99.90;;;1.24;93.91;97398.63;5203232;28;20193;-76
2021/01/02 01:29:42;;;;;;;26.50;22.43;;;0.40;99.90;;;1.27;93.26;97404.78;5202153;28;20197;-75
2021/01/02 01:32:20;;;;;;;21.30;17.77;;;0.40;99.90;;;1.25;93.07;97401.25;5202722;28;20227;-76
2021/01/02 01:34:59;;;;;;;39.40;33.27;;;0.40;99.90;;;1.23;93.20;97402.78;5203345;28;20310;-76
2021/01/02 01:37:34;;;;;;;67.40;55.93;;;0.30;99.90;;;1.27;93.13;97408.94;5203407;28;20199;-75
2021/01/02 01:40:08;;;;;;;25.43;21.97;;;0.30;99.90;;;1.22;92.63;97413.56;5203913;28;20218;-76
2021/01/02 01:42:43;;;;;;;21.30;18.80;;;0.30;99.90;;;1.25;92.60;97405.41;5192106;28;20227;-75
2021/01/02 01:45:56;;;;;;;19.63;16.70;;;0.30;99.90;;;1.26;92.27;97408.06;5183283;28;20288;-75
2021/01/02 01:48:54;;;;;;;20.13;17.00;;;0.30;99.90;;;1.29;92.74;97403.28;5182653;28;20207;-76
2021/01/02 01:51:55;;;;;;;18.00;15.93;;;0.30;99.90;;;1.24;92.88;97407.03;5183102;28;20655;-76
2021/01/02 01:55:04;;;;;;;23.67;20.33;;;0.30;99.90;;;1.22;92.38;97402.63;5183622;28;20226;-79
2021/01/02 01:57:39;;;;;;;20.73;18.00;;;0.30;99.90;;;1.23;92.42;97407.81;5191866;28;20232;-75
2021/01/02 02:00:14;;;;;;;25.67;22.93;;;0.30;99.90;;;1.26;91.71;97408.06;5189098;28;20335;-76
2021/01/02 02:03:12;;;;;;;19.47;16.60;;;0.30;99.90;;;1.26;91.82;97403.03;5185951;28;20213;-77
2021/01/02 02:05:54;;;;;;;19.80;16.97;;;0.30;99.90;;;1.28;91.86;97404.03;5187409;28;20246;-75
2021/01/02 02:08:42;;;;;;;16.53;14.73;;;0.30;99.90;;;1.20;92.29;97399.97;5185911;28;20195;-79
2021/01/02 02:11:32;;;;;;;17.50;15.47;;;0.20;99.90;;;1.25;91.96;97401.25;5187255;28;20312;-76
2021/01/02 02:14:12;;;;;;;17.13;14.90;;;0.30;99.90;;;1.26;92.19;97404.63;5186207;28;20257;-75
2021/01/02 02:16:48;;;;;;;17.17;15.03;;;0.30;99.90;;;1.30;91.97;97405.03;5185933;28;20209;-76
2021/01/02 02:19:54;;;;;;;17.10;15.30;;;0.30;99.90;;;1.31;91.95;97406.78;5191842;28;20202;-75
2021/01/02 02:22:27;;;;;;;17.97;16.07;;;0.30;99.90;;;1.38;91.46;97407.34;5199129;28;20217;-76
2021/01/02 02:25:04;;;;;;;16.90;15.10;;;0.40;99.90;;;1.32;91.59;97411.09;5196664;28;20223;-75
2021/01/02 02:27:39;;;;;;;17.60;15.20;;;0.30;99.90;;;1.32;91.37;97403.53;5207262;28;20207;-76
2021/01/02 02:30:15;;;;;;;15.73;14.07;;;0.30;99.90;;;1.35;91.39;97401.28;5197549;28;20210;-75
2021/01/02 02:32:48;;;;;;;16.97;15.13;;;0.30;99.90;;;1.40;90.88;97393.22;5195286;28;20225;-76
2021/01/02 02:35:22;;;;;;;17.83;15.73;;;0.40;99.90;;;1.39;90.63;97396.50;5197203;28;20566;-78
2021/01/02 02:37:55;;;;;;;17.83;15.73;;;0.40;99.90;;;1.39;90.56;97396.50;5207652;28;20292;-76
2021/01/02 02:40:29;;;;;;;17.60;15.73;;;0.40;99.90;;;1.39;90.53;97401.53;5208247;28;20203;-76
2021/01/02 02:43:03;;;;;;;18.07;16.13;;;0.40;99.90;;;1.34;91.46;97402.06;5199628;28;20228;-77
2021/01/02 02:45:36;;;;;;;17.37;15.13;;;0.40;99.90;;;1.40;91.21;97394.09;5189530;28;20231;-75
2021/01/02 02:48:14;;;;;;;17.30;15.37;;;0.40;99.90;;;1.48;90.25;97395.63;5204179;28;20209;-76
2021/01/02 02:50:50;;;;;;;17.93;15.30;;;0.30;99.90;;;1.51;89.81;97400.03;5195963;28;20197;-75
2021/01/02 02:53:22;;;;;;;16.50;14.80;;;0.30;99.90;;;1.47;89.66;97403.94;5186337;28;20202;-76
2021/01/02 02:55:55;;;;;;;16.40;14.70;;;0.30;99.90;;;1.42;90.56;97406.84;5197206;28;20227;-76
2021/01/02 02:58:29;;;;;;;16.63;14.83;;;0.20;99.90;;;1.42;90.44;97409.34;5206061;28;20204;-76
2021/01/02 03:01:02;;;;;;;15.43;13.63;;;0.20;99.90;;;1.40;90.52;97410.84;5205505;28;20344;-76
2021/01/02 03:03:34;;;;;;;17.83;15.90;;;0.30;99.90;;;1.38;89.88;97414.91;5189114;28;20252;-76
2021/01/02 03:06:07;;;;;;;19.13;15.87;;;0.20;99.90;;;1.41;90.30;97412.63;5197455;28;20264;-77
2021/01/02 03:08:39;;;;;;;19.47;17.03;;;0.20;99.90;;;1.34;90.69;97412.13;5206494;28;20197;-77
2021/01/02 03:11:15;;;;;;;20.27;17.60;;;0.30;99.90;;;1.35;90.30;97425.59;5193722;28;20235;-75
2021/01/02 03:13:47;;;;;;;19.60;17.07;;;0.30;99.90;;;1.41;90.82;97422.72;5194903;28;20410;-75
2021/01/02 03:16:19;;;;;;;17.70;15.73;;;0.30;99.90;;;1.38;90.25;97422.44;5206334;28;20301;-76
2021/01/02 03:18:52;;;;;;;16.87;15.07;;;0.20;99.90;;;1.29;90.33;97413.34;5203827;28;20211;-77
2021/01/02 03:21:24;;;;;;;17.33;14.93;;;0.30;99.90;;;1.38;90.28;97419.94;5199203;28;20221;-76
2021/01/02 03:23:59;;;;;;;18.93;14.97;;;0.30;99.90;;;1.34;90.35;97412.13;5186041;28;20216;-75
2021/01/02 03:26:32;;;;;;;16.30;14.53;;;0.30;99.90;;;1.31;90.98;97411.81;5185674;28;20250;-76
2021/01/02 03:29:04;;;;;;;15.13;13.47;;;0.30;99.90;;;1.29;90.69;97405.81;5186392;28;20217;-76
2021/01/02 03:31:36;;;;;;;16.50;14.80;;;0.40;99.90;;;1.30;91.06;97400.00;5197958;28;20236;-78
2021/01/02 03:34:09;;;;;;;16.23;14.63;;;0.40;99.90;;;1.36;91.37;97404.69;5207156;28;20225;-76
2021/01/02 03:36:41;;;;;;;16.20;14.50;;;0.50;99.90;;;1.38;90.68;97407.34;5206083;28;20197;-76
2021/01/02 03:39:13;;;;;;;15.77;14.10;;;0.50;99.90;;;1.41;91.09;97402.56;5206325;28;20213;-76
2021/01/02 03:41:46;;;;;;;16.53;14.80;;;0.50;99.90;;;1.39;90.14;97388.97;5191924;28;20300;-77
2021/01/02 03:44:18;;;;;;;17.00;14.87;;;0.50;99.90;;;1.40;90.77;97393.22;5184682;28;20205;-76
2021/01/02 03:46:50;;;;;;;18.17;15.27;;;0.50;99.90;;;1.38;90.58;97389.72;5185641;28;20197;-76
2021/01/02 03:49:22;;;;;;;20.13;16.27;;;0.40;99.90;;;1.39;90.13;97386.44;5188191;28;20204;-76
2021/01/02 03:51:54;;;;;;;26.33;21.50;;;0.40;99.90;;;1.31;89.81;97386.66;5204930;28;20233;-76
2021/01/02 03:54:26;;;;;;;25.10;19.37;;;0.30;99.90;;;1.25;89.80;97381.13;5205105;28;20228;-80
2021/01/02 03:56:59;;;;;;;21.60;18.43;;;0.20;99.90;;;1.27;90.31;97378.75;5203429;28;20207;-78
2021/01/02 03:59:31;;;;;;;23.87;19.80;;;0.20;99.90;;;1.27;89.72;97383.78;5185484;28;20232;-75
2021/01/02 04:02:03;;;;;;;21.57;18.83;;;0.30;99.90;;;1.28;90.61;97386.41;5184601;28;20214;-76
2021/01/02 04:04:35;;;;;;;16.70;14.77;;;0.40;99.90;;;1.35;90.12;97383.66;5185134;28;20634;-75
2021/01/02 04:07:07;;;;;;;15.47;13.27;;;0.30;99.90;;;1.41;89.80;97378.25;5185592;28;20212;-75
2021/01/02 04:09:39;;;;;;;12.73;11.43;;;0.30;99.90;;;1.53;88.96;97383.44;5205667;28;20295;-75
2021/01/02 04:12:12;;;;;;;13.77;12.47;;;0.30;99.90;;;1.53;88.68;97383.44;5202930;28;20221;-77
2021/01/02 04:14:45;;;;;;;13.43;12.13;;;0.20;99.90;;;1.49;88.08;97383.94;5184703;28;20221;-75
2021/01/02 04:17:17;;;;;;;12.87;11.67;;;0.20;99.90;;;1.39;88.09;97383.91;5185341;28;20197;-75
2021/01/02 04:19:49;;;;;;;12.83;11.53;;;0.10;99.90;;;1.28;89.01;97391.44;5204655;28;20215;-76
2021/01/02 04:22:21;;;;;;;13.23;11.93;;;0.10;99.90;;;1.18;89.63;97391.44;5204230;28;20222;-75
2021/01/02 04:24:53;;;;;;;13.47;12.17;;;0.10;99.90;;;1.18;89.37;97393.06;5188812;28;20193;-76
2021/01/02 04:27:26;;;;;;;14.23;12.73;;;0.10;99.90;;;1.19;89.08;97400.72;5183983;28;20205;-75
2021/01/02 04:29:58;;;;;;;14.10;12.70;;;0.10;99.90;;;1.14;89.65;97399.44;5204150;28;20289;-79
2021/01/02 04:32:30;;;;;;;13.63;12.23;;;0.10;99.90;;;1.15;89.88;97391.16;5203957;28;20214;-78
2021/01/02 04:35:04;;;;;;;16.77;14.27;;;0.20;99.90;;;1.06;89.99;97392.88;5204587;28;20223;-75
2021/01/02 04:37:36;;;;;;;15.93;13.93;;;0.20;99.90;;;1.05;90.72;97392.00;5203303;28;20209;-75
2021/01/02 04:40:11;;;;;;;16.70;14.83;;;0.20;99.90;;;1.15;90.58;97398.72;5184620;28;20247;-79
2021/01/02 04:42:44;;;;;;;15.23;13.63;;;0.20;99.90;;;1.12;89.85;97398.47;5187312;28;20256;-78
2021/01/02 04:45:18;;;;;;;15.20;13.60;;;0.20;99.90;;;1.19;89.34;97395.69;5185487;28;20196;-77
2021/01/02 04:48:09;;;;;;;13.63;12.23;;;0.20;99.90;;;1.15;90.28;97396.19;5185576;28;20199;-77
2021/01/02 04:50:42;;;;;;;14.10;12.70;;;0.20;99.90;;;1.16;89.59;97399.59;5194349;28;20214;-78
2021/01/02 04:53:14;;;;;;;15.20;13.70;;;0.20;99.90;;;1.15;90.29;97400.34;5184158;28;20267;-76
2021/01/02 04:55:47;;;;;;;14.80;13.27;;;0.30;99.90;;;1.17;90.30;97397.19;5183395;28;20586;-76
2021/01/02 04:58:23;;;;;;;13.30;11.90;;;0.30;99.90;;;1.28;89.97;97401.50;5187058;28;20295;-78
2021/01/02 05:00:57;;;;;;;12.67;11.47;;;0.20;99.90;;;1.27;88.99;97394.72;5201813;28;20657;-78
2021/01/02 05:03:31;;;;;;;13.47;12.07;;;0.20;99.90;;;1.22;88.72;97401.00;5209025;28;20211;-78
2021/01/02 05:06:04;;;;;;;13.70;12.30;;;0.10;99.90;;;1.25;88.64;97401.25;5189209;28;20313;-76
2021/01/02 05:08:36;;;;;;;14.57;13.07;;;0.10;99.90;;;1.20;88.96;97397.44;5186516;28;20205;-76
2021/01/02 05:11:08;;;;;;;14.03;12.53;;;0.00;99.90;;;1.13;88.96;97401.09;5185150;28;20224;-77
2021/01/02 05:13:41;;;;;;;13.20;11.90;;;0.00;99.90;;;1.09;89.03;97399.06;5185438;28;20208;-75
2021/01/02 05:16:24;;;;;;;13.30;12.00;;;0.00;99.90;;;1.05;89.06;97402.06;5208170;28;20515;-76
2021/01/02 05:18:59;;;;;;;13.70;12.30;;;0.00;99.90;;;1.18;89.08;97403.13;5205553;28;20240;-78
2021/01/02 05:21:33;;;;;;;14.47;12.93;;;0.00;99.90;;;1.04;88.94;97397.78;5205299;28;20295;-78
2021/01/02 05:24:11;;;;;;;14.03;12.53;;;0.00;99.90;;;0.99;89.88;97395.63;5205360;28;20203;-78
2021/01/02 05:26:45;;;;;;;14.23;12.73;;;0.00;99.90;;;0.96;89.70;97393.72;5194559;28;20617;-77
2021/01/02 05:29:21;;;;;;;14.63;13.00;;;0.00;99.90;;;1.01;90.02;97396.66;5183020;28;20406;-75
2021/01/02 05:31:55;;;;;;;14.00;12.50;;;0.10;99.90;;;1.00;89.03;97403.34;5188758;28;20224;-77
2021/01/02 05:34:30;;;;;;;14.73;13.23;;;0.10;99.90;;;1.03;89.32;97408.63;5205532;28;20223;-75
2021/01/02 05:37:05;;;;;;;13.93;12.43;;;0.10;99.90;;;1.08;89.35;97402.31;5208387;28;20200;-76
2021/01/02 05:39:39;;;;;;;15.53;12.43;;;0.10;99.90;;;1.17;88.62;97412.28;5207228;28;20432;-75
2021/01/02 05:42:11;;;;;;;13.83;11.73;;;0.00;99.90;;;1.09;88.89;97414.19;5198414;28;20226;-77
2021/01/02 05:44:44;;;;;;;13.50;12.10;;;0.00;99.90;;;1.07;88.86;97415.66;5189376;28;20200;-75
2021/01/02 05:47:21;;;;;;;13.80;12.13;;;0.00;99.90;;;1.04;88.96;97414.53;5186981;28;20195;-78
2021/01/02 05:49:55;;;;;;;13.37;12.03;;;0.00;99.90;;;1.13;88.67;97415.31;5189103;28;20459;-78
2021/01/02 05:52:33;;;;;;;13.23;11.90;;;0.00;99.90;;;1.13;88.02;97410.28;5189238;28;20254;-76
2021/01/02 05:55:07;;;;;;;13.77;12.27;;;0.00;99.90;;;1.11;88.35;97409.25;5188662;28;20317;-78
2021/01/02 05:57:39;;;;;;;13.07;11.77;;;0.00;99.90;;;1.01;88.42;97411.75;5190259;28;20235;-78
2021/01/02 06:00:18;;;;;;;13.60;12.30;;;0.00;99.90;;;0.95;89.03;97414.63;5193346;28;20201;-79
2021/01/02 06:02:50;;;;;;;15.33;13.83;;;-0.10;99.90;;;0.90;88.99;97406.66;5191502;28;20224;-78
2021/01/02 06:05:22;;;;;;;15.87;14.27;;;-0.10;99.90;;;0.86;88.91;97411.31;5188905;28;20196;-78
2021/01/02 06:07:54;;;;;;;14.67;13.20;;;-0.10;99.90;;;0.81;89.49;97410.91;5189261;28;20680;-78
2021/01/02 06:10:26;;;;;;;15.60;14.10;;;-0.10;99.90;;;0.88;89.98;97403.13;5191936;28;20190;-76
2021/01/02 06:12:58;;;;;;;15.63;14.13;;;0.00;99.90;;;0.94;90.04;97409.44;5208051;28;20707;-78
2021/01/02 06:15:32;;;;;;;15.23;13.73;;;0.10;99.90;;;0.98;90.31;97419.03;5208143;28;20216;-77
2021/01/02 06:18:05;;;;;;;14.93;13.40;;;0.10;99.90;;;1.06;89.85;97407.97;5200485;28;20208;-77
2021/01/02 06:20:37;;;;;;;15.27;13.73;;;0.10;99.90;;;1.16;88.99;97408.03;5204401;28;20207;-78
2021/01/02 06:23:17;;;;;;;17.17;13.93;;;0.10;99.90;;;1.12;89.03;97414.44;5209550;28;20224;-78
2021/01/02 06:25:52;;;;;;;16.23;13.40;;;0.10;99.90;;;1.11;88.83;97414.28;5207412;28;20228;-77
2021/01/02 06:28:27;;;;;;;14.70;13.03;;;0.10;99.90;;;1.14;88.40;97417.06;5210321;28;20203;-78
2021/01/02 06:31:06;;;;;;;14.30;12.80;;;0.10;99.90;;;1.07;88.13;97414.78;5209675;28;20198;-78
2021/01/02 06:33:46;;;;;;;15.67;13.17;;;0.00;99.90;;;1.12;88.98;97418.59;5199689;28;20198;-76
2021/01/02 06:36:29;;;;;;;14.67;13.13;;;0.00;99.90;;;1.13;88.28;97415.31;5186676;28;20649;-75
2021/01/02 06:39:21;;;;;;;17.57;13.93;;;0.00;99.90;;;1.06;88.42;97413.91;5188688;28;20609;-76
2021/01/02 06:41:56;;;;;;;14.90;13.07;;;0.00;99.90;;;1.04;88.44;97412.00;5187336;28;20220;-75
2021/01/02 06:44:39;;;;;;;14.53;13.03;;;0.00;99.90;;;1.04;88.92;97401.94;5190850;28;20204;-78
2021/01/02 06:47:20;;;;;;;14.83;13.33;;;0.00;99.90;;;1.05;88.75;97407.09;5200446;28;20198;-78
2021/01/02 06:49:52;;;;;;;15.40;13.77;;;0.00;99.90;;;1.03;88.62;97413.66;5190896;28;20656;-77
2021/01/02 06:52:32;;;;;;;14.30;12.77;;;0.00;99.90;;;1.01;88.75;97416.78;5186198;28;20303;-78
2021/01/02 06:55:22;;;;;;;15.50;13.63;;;0.00;99.90;;;1.05;89.04;97423.84;5186003;28;20732;-78
2021/01/02 06:58:15;;;;;;;15.60;13.90;;;0.00;99.90;;;1.03;88.62;97412.75;5190421;28;20712;-79
2021/01/02 07:00:48;;;;;;;17.47;14.73;;;0.00;99.90;;;1.03;88.72;97422.81;5205577;28;20286;-78
2021/01/02 07:03:44;;;;;;;18.80;15.37;;;0.00;99.90;;;0.98;88.85;97419.91;5208500;28;20205;-78
2021/01/02 07:06:24;;;;;;;21.17;16.37;;;0.00;99.90;;;0.95;89.35;97428.84;5194625;28;20201;-77
2021/01/02 07:08:58;;;;;;;20.93;18.70;;;0.00;99.90;;;0.83;89.41;97428.63;5187070;28;20282;-77
2021/01/02 07:11:34;;;;;;;21.30;18.33;;;0.00;99.90;;;0.81;89.76;97430.16;5187217;28;20227;-78
2021/01/02 07:14:28;;;;;;;22.70;18.53;;;0.00;99.90;;;0.84;89.61;97426.25;5185832;28;20200;-76
2021/01/02 07:17:01;;;;;;;19.70;16.77;;;0.00;99.90;;;0.87;89.81;97431.56;5186635;28;20224;-77
2021/01/02 07:19:50;;;;;;;20.43;16.53;;;0.00;99.90;;;0.94;90.04;97448.06;5187161;28;20206;-79
2021/01/02 07:22:31;;;;;;;24.50;18.80;;;0.00;99.90;;;1.05;89.84;97447.34;5189515;28;20300;-76
2021/01/02 07:25:07;;;;;;;24.33;18.50;;;0.10;99.90;;;1.05;89.77;97437.28;5186803;28;20208;-76
2021/01/02 07:27:40;;;;;;;30.43;19.57;;;0.10;99.90;;;0.85;89.92;97430.53;5184971;28;20229;-75
2021/01/02 07:30:14;;;;;;;34.10;23.93;;;0.00;99.90;;;0.75;89.75;97435.53;5198395;28;20200;-76
2021/01/02 07:32:46;;;;;;;24.17;18.77;;;-0.10;99.90;;;0.76;90.43;97432.25;5205762;28;20300;-77
2021/01/02 07:35:19;;;;;;;25.00;18.93;;;-0.10;99.90;;;0.81;90.37;97427.63;5207364;28;20215;-78
2021/01/02 07:37:54;;;;;;;23.17;17.80;;;0.00;99.90;;;0.83;90.68;97429.53;5196557;28;20788;-77
2021/01/02 07:40:26;;;;;;;21.53;17.60;;;0.10;99.90;;;0.88;90.98;97432.44;5186291;28;20248;-78
2021/01/02 07:42:59;;;;;;;26.80;19.00;;;0.10;99.90;;;1.03;90.01;97438.81;5189292;28;20288;-78
2021/01/02 07:45:31;;;;;;;27.43;19.17;;;0.10;99.90;;;1.06;90.25;97440.69;5187538;28;20191;-76
2021/01/02 07:48:04;;;;;;;24.40;19.10;;;0.10;99.90;;;1.12;90.34;97444.63;5186663;28;20241;-77
2021/01/02 07:50:37;;;;;;;26.57;19.17;;;0.10;99.90;;;1.08;89.77;97441.72;5187807;28;20767;-78
2021/01/02 07:53:09;;;;;;;26.57;19.47;;;0.10;99.90;;;1.08;89.82;97442.59;5187502;28;20305;-78
2021/01/02 07:55:42;;;;;;;21.50;17.50;;;0.10;99.90;;;1.05;90.42;97437.28;5199033;28;20312;-77
2021/01/02 07:58:25;;;;;;;24.70;17.83;;;0.00;99.90;;;1.06;89.54;97443.19;5200355;28;20296;-78
2021/01/02 08:01:08;;;;;;;25.40;18.83;;;0.00;99.90;;;1.07;90.53;97450.03;5200607;28;20722;-75
2021/01/02 08:03:40;;;;;;;23.17;17.33;;;0.10;99.90;;;1.13;90.15;97441.34;5186137;28;20287;-78
2021/01/02 08:06:18;;;;;;;26.53;18.73;;;0.10;99.90;;;1.20;89.87;97437.72;5185616;28;20280;-77
2021/01/02 08:08:58;;;;;;;24.33;17.50;;;0.10;99.90;;;1.20;88.85;97440.22;5186083;28;20215;-78
2021/01/02 08:11:30;;;;;;;25.23;18.37;;;0.10;99.90;;;1.09;88.90;97434.31;5185573;28;20215;-76
2021/01/02 08:14:03;;;;;;;23.63;17.60;;;0.00;99.90;;;0.96;90.01;97443.19;5205073;28;20206;-80
2021/01/02 08:16:35;;;;;;;24.70;18.63;;;0.00;99.90;;;1.00;89.82;97440.16;5205145;28;20218;-77
2021/01/02 08:19:07;;;;;;;22.97;18.17;;;0.10;99.90;;;1.05;90.18;97439.81;5207537;28;20230;-75
2021/01/02 08:21:40;;;;;;;21.87;17.47;;;0.20;99.90;;;1.10;89.89;97440.22;5206455;28;20228;-79
2021/01/02 08:24:12;;;;;;;20.10;15.37;;;0.20;99.90;;;1.19;89.56;97432.56;5209217;28;20195;-78
2021/01/02 08:26:45;;;;;;;20.03;16.57;;;0.20;99.90;;;1.22;89.94;97425.28;5207455;28;20668;-78
2021/01/02 08:29:17;;;;;;;20.83;15.87;;;0.30;99.90;;;1.22;89.59;97428.66;5203686;28;20204;-79
2021/01/02 08:31:53;;;;;;;21.20;17.33;;;0.30;99.90;;;1.27;89.89;97429.97;5207978;28;20783;-79
2021/01/02 08:34:32;;;;;;;20.23;16.90;;;0.30;99.90;;;1.29;89.35;97433.50;5207108;28;20204;-78
2021/01/02 08:37:09;;;;;;;20.20;17.07;;;0.40;99.90;;;1.30;89.17;97440.28;5209928;28;20308;-79
2021/01/02 08:39:42;;;;;;;20.17;16.07;;;0.40;99.90;;;1.27;88.65;97440.03;5187808;28;20258;-78
2021/01/02 08:42:14;;;;;;;20.13;17.10;;;0.40;99.90;;;1.26;89.71;97443.31;5190341;28;20614;-78
2021/01/02 08:44:47;;;;;;;20.80;17.17;;;0.40;99.90;;;1.25;88.76;97441.53;5187075;28;20202;-78
2021/01/02 08:47:25;;;;;;;21.80;18.57;;;0.40;99.90;;;1.27;89.40;97442.53;5185632;28;20574;-77
2021/01/02 08:50:07;;;;;;;21.63;17.87;;;0.40;99.90;;;1.31;89.65;97439.53;5184077;28;20654;-77
2021/01/02 08:52:42;;;;;;;23.37;17.90;;;0.50;99.90;;;1.30;89.58;97440.28;5188608;28;20227;-77
2021/01/02 08:55:16;;;;;;;22.77;17.63;;;0.50;99.90;;;1.39;89.79;97435.16;5199813;28;20254;-78
2021/01/02 08:57:50;;;;;;;22.27;18.33;;;0.50;99.90;;;1.44;89.85;97443.97;5197222;28;20202;-75
2021/01/02 09:00:28;;;;;;;20.43;17.13;;;0.50;99.90;;;1.42;89.71;97444.59;5205901;28;20290;-78
2021/01/02 09:03:04;;;;;;;20.33;18.00;;;0.60;99.90;;;1.57;88.24;97446.78;5200018;28;20310;-77
2021/01/02 09:05:38;;;;;;;21.80;18.27;;;0.60;99.90;;;1.46;88.46;97449.13;5196008;28;20308;-77
2021/01/02 09:08:18;;;;;;;21.33;17.73;;;0.60;99.90;;;1.48;88.32;97450.16;5195544;28;20724;-79
2021/01/02 09:10:56;;;;;;;21.50;18.27;;;0.60;99.90;;;1.48;88.21;97452.66;5193733;28;20576;-79
2021/01/02 09:13:31;;;;;;;19.57;17.00;;;0.60;99.90;;;1.61;88.70;97452.97;5189095;28;20196;-77
2021/01/02 09:16:05;;;;;;;22.13;18.40;;;0.70;99.90;;;1.55;88.38;97447.41;5185994;28;20224;-77
2021/01/02 09:18:44;;;;;;;21.97;18.47;;;0.80;99.90;;;1.58;87.66;97445.16;5190529;28;20231;-80
2021/01/02 09:21:23;;;;;;;23.17;19.70;;;0.80;99.90;;;1.72;87.52;97449.72;5202745;28;20225;-79
2021/01/02 09:24:21;;;;;;;22.90;17.90;;;0.80;99.90;;;1.75;87.64;97452.50;5196631;28;20568;-78
2021/01/02 09:26:53;;;;;;;22.50;18.23;;;1.00;99.90;;;1.91;88.08;97448.72;5199625;28;20205;-80
2021/01/02 09:29:25;;;;;;;24.73;19.23;;;1.00;99.90;;;2.06;87.06;97450.00;5184515;28;20205;-77
2021/01/02 09:31:57;;;;;;;23.07;19.53;;;1.20;99.90;;;2.21;85.75;97451.25;5187535;28;20312;-78
2021/01/02 09:34:30;;;;;;;21.87;19.00;;;1.20;99.90;;;2.22;86.23;97453.00;5201419;28;20220;-78
2021/01/02 09:37:02;;;;;;;21.63;19.13;;;1.30;99.90;;;2.29;85.98;97443.44;5203878;28;20223;-77
2021/01/02 09:39:35;;;;;;;21.63;18.73;;;1.30;99.90;;;2.47;84.10;97448.34;5197648;28;20286;-79
2021/01/02 09:42:07;;;;;;;22.73;19.07;;;1.40;99.90;;;2.58;82.69;97454.25;5184874;28;20218;-77
2021/01/02 09:44:39;;;;;;;21.47;18.37;;;1.50;99.90;;;2.52;83.21;97468.91;5196816;28;20281;-78
2021/01/02 09:47:11;;;;;;;23.83;19.50;;;1.50;99.90;;;2.44;82.76;97462.34;5197662;28;20626;-79
2021/01/02 09:49:43;;;;;;;22.43;18.20;;;1.50;99.90;;;2.62;82.57;97455.38;5205833;28;20206;-79
2021/01/02 09:52:15;;;;;;;23.67;19.40;;;1.60;99.90;;;2.63;82.42;97470.66;5198731;28;20301;-78
2021/01/02 09:54:48;;;;;;;21.40;19.03;;;1.70;99.90;;;2.68;82.44;97465.97;5199750;28;20202;-78
2021/01/02 09:57:20;;;;;;;20.70;18.13;;;1.60;99.90;;;2.56;81.96;97475.94;5205638;28;20290;-78
2021/01/02 09:59:53;;;;;;;23.03;19.07;;;1.50;99.90;;;2.50;82.13;97480.50;5188450;28;20718;-78
2021/01/02 10:02:26;;;;;;;20.60;17.57;;;1.60;99.90;;;2.54;81.64;97479.97;5197681;28;20218;-78
2021/01/02 10:04:58;;;;;;;24.30;19.57;;;1.50;99.90;;;2.62;82.19;97473.91;5196111;28;20221;-78
2021/01/02 10:07:30;;;;;;;23.87;19.93;;;1.60;99.90;;;2.41;83.14;97474.72;5196680;28;20194;-78
2021/01/02 10:10:05;;;;;;;22.40;19.17;;;1.40;99.90;;;2.41;82.91;97457.06;5187248;28;20209;-78
2021/01/02 10:12:37;;;;;;;23.10;19.73;;;1.40;99.90;;;2.46;82.61;97460.81;5194252;28;20216;-79
2021/01/02 10:15:11;;;;;;;23.30;19.70;;;1.50;99.90;;;2.49;84.49;97448.47;5195550;28;20232;-77
2021/01/02 10:17:43;;;;;;;24.33;20.20;;;1.60;99.90;;;2.51;83.71;97444.41;5192717;28;20664;-77
2021/01/02 10:20:16;;;;;;;23.73;19.40;;;1.70;99.90;;;2.61;84.21;97446.06;5196984;28;20264;-79
2021/01/02 10:22:48;;;;;;;23.93;20.33;;;1.80;99.90;;;2.81;82.18;97442.63;5186432;28;20596;-79
2021/01/02 10:25:21;;;;;;;25.70;20.60;;;2.00;99.90;;;2.65;83.32;97438.84;5186060;28;20285;-79
2021/01/02 10:27:53;;;;;;;23.00;19.27;;;2.00;99.90;;;2.71;83.27;97431.75;5185814;28;20212;-79
2021/01/02 10:30:26;;;;;;;25.30;21.07;;;1.90;99.90;;;2.76;83.39;97431.25;5205151;28;20201;-79
2021/01/02 10:32:58;;;;;;;25.57;21.20;;;1.80;99.90;;;2.81;83.53;97432.53;5205433;28;20217;-78
2021/01/02 10:35:31;;;;;;;24.97;21.53;;;1.80;99.90;;;2.85;83.09;97435.38;5197473;28;20678;-79
2021/01/02 10:38:03;;;;;;;23.20;20.33;;;1.90;99.90;;;2.87;83.21;97427.97;5203420;28;20204;-78
2021/01/02 10:40:35;;;;;;;23.27;20.23;;;2.00;99.90;;;2.93;84.02;97428.44;5186161;28;20210;-78
2021/01/02 10:43:07;;;;;;;24.60;20.73;;;2.00;99.90;;;2.94;83.36;97428.53;5185059;28;20236;-79
2021/01/02 10:45:40;;;;;;;21.73;18.90;;;2.00;99.90;;;2.99;83.93;97423.00;5184920;28;20203;-78
2021/01/02 10:48:12;;;;;;;24.37;20.10;;;2.10;99.90;;;2.99;83.63;97428.91;5195711;28;20569;-77
2021/01/02 10:50:44;;;;;;;22.10;19.23;;;2.10;99.90;;;3.01;82.77;97418.94;5203506;28;20293;-78
2021/01/02 10:53:16;;;;;;;21.93;19.60;;;2.00;99.90;;;2.91;82.56;97424.91;5203376;28;20217;-78
2021/01/02 10:55:48;;;;;;;22.07;18.57;;;1.90;99.90;;;3.11;81.56;97414.72;5186247;28;20222;-78
2021/01/02 10:58:21;;;;;;;22.80;18.87;;;2.00;99.90;;;3.10;79.74;97407.03;5222021;28;20252;-78
2021/01/02 11:00:56;;;;;;;22.07;18.93;;;2.00;99.90;;;3.03;81.05;97400.63;5226257;28;20544;-78